Time;durP1;ratioP1;P1;durP2;ratioP2;P2;SDS_P1;SDS_P2;PMS_P1;PMS_P2;Temp;Humidity;BMP_temperature;BMP_pressure;BME280_temperature;BME280_humidity;BME280_pressure;Samples;Min_cycle;Max_cycle;Signal;HPM_P1;HPM_P2
2022/09/02 00:01:30;;;;;;;4.20;3.42;;;18.10;86.00;;;;;;5134894;27;20110;-49
2022/09/02 00:03:59;;;;;;;4.65;3.60;;;18.00;85.90;;;;;;5150589;27;20056;-50
2022/09/02 00:06:28;;;;;;;6.30;3.25;;;18.00;86.10;;;;;;5153307;27;20030;-51
2022/09/02 00:08:54;;;;;;;6.88;3.22;;;18.00;86.10;;;;;;5153364;27;20080;-49
2022/09/02 00:11:24;;;;;;;6.38;3.33;;;17.90;86.20;;;;;;5132101;27;20038;-52
2022/09/02 00:13:50;;;;;;;4.65;3.40;;;17.90;86.20;;;;;;5152985;27;20033;-54
2022/09/02 00:16:17;;;;;;;6.13;3.67;;;17.80;86.80;;;;;;5166296;27;20026;-51
2022/09/02 00:18:43;;;;;;;3.78;3.33;;;17.80;86.60;;;;;;5153925;27;20023;-48
2022/09/02 00:21:11;;;;;;;5.03;3.33;;;17.80;86.60;;;;;;5151480;27;20038;-48
2022/09/02 00:23:37;;;;;;;4.57;3.42;;;17.80;86.50;;;;;;5131627;27;20499;-55
2022/09/02 00:26:03;;;;;;;4.18;3.40;;;17.70;86.60;;;;;;5156392;27;20031;-52
2022/09/02 00:28:29;;;;;;;4.13;3.47;;;17.70;86.80;;;;;;5151896;27;20035;-50
2022/09/02 00:30:55;;;;;;;6.88;3.90;;;17.70;87.00;;;;;;5152276;27;20437;-54
2022/09/02 00:33:21;;;;;;;6.57;3.22;;;17.60;87.50;;;;;;5152322;27;20030;-49
2022/09/02 00:35:47;;;;;;;5.20;3.55;;;17.50;87.00;;;;;;5152962;27;20034;-49
2022/09/02 00:38:12;;;;;;;4.30;3.50;;;17.50;87.10;;;;;;5153671;27;20029;-49
2022/09/02 00:40:44;;;;;;;5.63;3.17;;;17.50;87.40;;;;;;5153806;27;20044;-50
2022/09/02 00:43:10;;;;;;;4.60;3.47;;;17.50;87.20;;;;;;5134901;27;20038;-50
2022/09/02 00:45:36;;;;;;;3.45;2.95;;;17.50;87.30;;;;;;5152657;27;20041;-51
2022/09/02 00:48:04;;;;;;;4.15;2.88;;;17.50;87.20;;;;;;5153370;27;20023;-50
2022/09/02 00:50:36;;;;;;;3.58;2.80;;;17.50;87.20;;;;;;5134617;27;20046;-52
2022/09/02 00:53:08;;;;;;;3.42;2.80;;;17.50;87.10;;;;;;5152880;27;20030;-50
2022/09/02 00:55:45;;;;;;;4.28;2.92;;;17.60;87.10;;;;;;5153372;27;20125;-50
2022/09/02 00:58:23;;;;;;;3.38;3.08;;;17.50;87.10;;;;;;5134788;27;20089;-51
2022/09/02 01:00:55;;;;;;;5.95;3.20;;;17.50;86.90;;;;;;5153110;27;20066;-50
2022/09/02 01:03:22;;;;;;;5.72;3.20;;;17.50;86.90;;;;;;5152631;27;20039;-50
2022/09/02 01:05:49;;;;;;;4.30;3.00;;;17.50;87.20;;;;;;5153416;27;20069;-49
2022/09/02 01:08:21;;;;;;;4.28;2.80;;;17.50;87.20;;;;;;5152757;27;20084;-49
2022/09/02 01:10:48;;;;;;;4.45;3.10;;;17.50;87.20;;;;;;5132027;27;20039;-51
2022/09/02 01:13:17;;;;;;;4.47;3.25;;;17.50;87.30;;;;;;5132827;27;20065;-53
2022/09/02 01:15:50;;;;;;;3.30;2.97;;;17.50;87.30;;;;;;5153063;27;20070;-51
2022/09/02 01:18:20;;;;;;;5.60;3.22;;;17.40;87.40;;;;;;5152668;27;20031;-52
2022/09/02 01:20:46;;;;;;;4.10;3.00;;;17.40;87.40;;;;;;5134489;27;20035;-53
2022/09/02 01:23:15;;;;;;;3.78;3.30;;;17.40;87.40;;;;;;5145845;27;20108;-52
2022/09/02 01:25:42;;;;;;;5.03;2.80;;;17.40;87.50;;;;;;5134562;27;20035;-51
2022/09/02 01:28:14;;;;;;;6.15;3.58;;;17.40;87.50;;;;;;5151838;27;20500;-49
2022/09/02 01:30:46;;;;;;;5.65;3.30;;;17.40;87.30;;;;;;5152517;27;20092;-49
2022/09/02 01:33:11;;;;;;;4.20;3.00;;;17.30;87.90;;;;;;5134391;27;20109;-55
2022/09/02 01:35:38;;;;;;;4.00;3.30;;;17.20;88.20;;;;;;5152149;27;20098;-53
2022/09/02 01:38:04;;;;;;;4.88;3.22;;;17.20;88.20;;;;;;5152548;27;20023;-52
2022/09/02 01:40:31;;;;;;;4.85;3.30;;;17.20;88.20;;;;;;5152592;27;20038;-51
2022/09/02 01:43:05;;;;;;;3.85;3.22;;;17.20;88.10;;;;;;5151757;27;20409;-47
2022/09/02 01:45:32;;;;;;;3.80;3.20;;;17.20;88.10;;;;;;5152458;27;20045;-48
2022/09/02 01:47:57;;;;;;;5.88;3.15;;;17.20;88.30;;;;;;5152040;27;20034;-51
2022/09/02 01:50:23;;;;;;;5.05;3.40;;;17.10;88.30;;;;;;5152135;27;20039;-51
2022/09/02 01:52:49;;;;;;;4.72;3.03;;;17.10;88.40;;;;;;5132999;27;20054;-50
2022/09/02 01:55:15;;;;;;;6.57;3.40;;;17.10;88.50;;;;;;5152321;27;20038;-51
2022/09/02 01:57:40;;;;;;;3.90;3.50;;;17.00;88.80;;;;;;5133795;27;20080;-52
2022/09/02 02:00:10;;;;;;;6.65;3.42;;;16.90;89.00;;;;;;5152306;27;20030;-54
2022/09/02 02:02:36;;;;;;;4.07;3.17;;;16.90;89.00;;;;;;5151591;27;20027;-50
2022/09/02 02:05:02;;;;;;;5.28;3.10;;;16.90;88.90;;;;;;5152774;27;20041;-48
2022/09/02 02:07:27;;;;;;;7.70;3.60;;;16.90;89.00;;;;;;5152321;27;20023;-49
2022/09/02 02:09:53;;;;;;;4.53;3.83;;;16.90;89.20;;;;;;5152903;27;20090;-52
2022/09/02 02:12:20;;;;;;;3.55;3.22;;;16.80;89.40;;;;;;5151980;27;20079;-54
2022/09/02 02:14:46;;;;;;;5.10;3.38;;;16.80;89.30;;;;;;5152560;27;20027;-53
2022/09/02 02:17:12;;;;;;;4.72;3.33;;;16.80;89.60;;;;;;5152143;27;20054;-52
2022/09/02 02:19:37;;;;;;;4.95;3.85;;;16.70;89.70;;;;;;5152484;27;20085;-53
2022/09/02 02:22:03;;;;;;;4.85;3.60;;;16.80;89.60;;;;;;5146096;27;20034;-51
2022/09/02 02:24:29;;;;;;;7.25;3.75;;;16.70;89.70;;;;;;5133551;27;20058;-51
2022/09/02 02:26:55;;;;;;;6.70;3.60;;;16.70;90.00;;;;;;5151788;27;20033;-49
2022/09/02 02:29:21;;;;;;;6.30;3.78;;;16.60;89.90;;;;;;5152187;27;20051;-50
2022/09/02 02:31:47;;;;;;;5.78;3.90;;;16.60;90.00;;;;;;5151231;27;20062;-49
2022/09/02 02:34:13;;;;;;;5.72;3.50;;;16.60;90.10;;;;;;5152125;27;20079;-48
2022/09/02 02:36:40;;;;;;;8.80;3.90;;;16.50;90.20;;;;;;5133574;27;20043;-52
2022/09/02 02:39:08;;;;;;;4.35;3.50;;;16.50;90.30;;;;;;5153515;27;20121;-48
2022/09/02 02:41:34;;;;;;;5.72;3.65;;;16.40;90.30;;;;;;5155562;27;20667;-50
2022/09/02 02:44:00;;;;;;;5.25;3.85;;;16.40;90.40;;;;;;5155742;27;20030;-52
2022/09/02 02:46:26;;;;;;;5.80;4.05;;;16.40;90.30;;;;;;5156324;27;20059;-51
2022/09/02 02:48:51;;;;;;;5.53;3.85;;;16.30;90.40;;;;;;5155872;27;20056;-49
2022/09/02 02:51:17;;;;;;;5.00;3.47;;;16.30;90.50;;;;;;5155240;27;20080;-52
2022/09/02 02:53:43;;;;;;;4.60;3.53;;;16.20;90.50;;;;;;5137264;27;20499;-48
2022/09/02 02:56:08;;;;;;;3.80;3.40;;;16.20;90.60;;;;;;5137649;27;20453;-51
2022/09/02 02:58:35;;;;;;;4.65;3.60;;;16.20;90.60;;;;;;5155783;27;20095;-50
2022/09/02 03:01:01;;;;;;;5.85;3.92;;;16.20;90.70;;;;;;5156117;27;20095;-48
2022/09/02 03:03:27;;;;;;;4.13;3.50;;;16.20;90.70;;;;;;5154627;27;20065;-49
2022/09/02 03:05:53;;;;;;;6.18;3.95;;;16.20;90.80;;;;;;5174022;27;20030;-54
2022/09/02 03:08:20;;;;;;;6.30;3.85;;;16.10;90.70;;;;;;5172329;27;20042;-52
2022/09/02 03:10:53;;;;;;;5.00;4.05;;;16.10;90.80;;;;;;5155180;27;20072;-51
2022/09/02 03:13:20;;;;;;;5.03;3.70;;;16.00;91.00;;;;;;5154983;27;20482;-49
2022/09/02 03:15:46;;;;;;;5.50;3.60;;;16.00;91.10;;;;;;5154858;27;20393;-50
2022/09/02 03:18:12;;;;;;;6.30;3.78;;;15.90;91.10;;;;;;5155387;27;20019;-52
2022/09/02 03:20:39;;;;;;;4.80;3.80;;;15.90;91.10;;;;;;5154868;27;20117;-48
2022/09/02 03:23:05;;;;;;;4.88;3.90;;;15.80;91.20;;;;;;5147795;27;20031;-49
2022/09/02 03:25:33;;;;;;;5.28;3.72;;;15.80;91.30;;;;;;5136535;27;20367;-51
2022/09/02 03:28:00;;;;;;;5.97;3.72;;;15.80;91.50;;;;;;5155127;27;20025;-49
2022/09/02 03:30:29;;;;;;;5.32;3.50;;;15.80;91.50;;;;;;5135866;27;20038;-50
2022/09/02 03:32:56;;;;;;;5.60;3.83;;;15.80;91.50;;;;;;5155147;27;20037;-49
2022/09/02 03:35:23;;;;;;;6.38;4.53;;;15.80;91.50;;;;;;5154608;27;20033;-50
2022/09/02 03:37:50;;;;;;;5.30;3.92;;;15.80;91.30;;;;;;5136647;27;20048;-49
2022/09/02 03:40:23;;;;;;;6.55;4.65;;;15.90;91.50;;;;;;5154251;27;20030;-51
2022/09/02 03:42:50;;;;;;;6.68;4.15;;;15.80;91.40;;;;;;5154426;27;20053;-48
2022/09/02 03:45:16;;;;;;;8.75;4.57;;;15.80;91.60;;;;;;5154218;27;20054;-51
2022/09/02 03:47:49;;;;;;;4.32;3.63;;;15.80;91.60;;;;;;5154628;27;20070;-52
2022/09/02 03:50:38;;;;;;;4.82;3.88;;;15.90;91.60;;;;;;5153573;27;20030;-49
2022/09/02 03:53:06;;;;;;;4.13;3.35;;;15.90;91.70;;;;;;5155721;27;20029;-48
2022/09/02 03:55:33;;;;;;;6.82;3.80;;;15.90;91.80;;;;;;5154564;27;20022;-48
2022/09/02 03:57:58;;;;;;;6.55;4.35;;;15.90;91.70;;;;;;5154512;27;20046;-50
2022/09/02 04:00:30;;;;;;;4.55;3.85;;;15.90;91.80;;;;;;5154618;27;20042;-49
2022/09/02 04:02:57;;;;;;;5.28;3.60;;;15.90;91.80;;;;;;5154020;27;20122;-48
2022/09/02 04:05:23;;;;;;;8.13;4.32;;;15.90;91.70;;;;;;5153956;27;20036;-50
2022/09/02 04:07:51;;;;;;;8.00;5.50;;;15.90;91.70;;;;;;5154693;27;20039;-50
2022/09/02 04:10:18;;;;;;;24.90;17.48;;;15.80;91.80;;;;;;5153424;27;20125;-50
2022/09/02 04:12:43;;;;;;;18.70;12.43;;;15.80;91.90;;;;;;5153994;27;20026;-52
2022/09/02 04:15:10;;;;;;;9.25;7.10;;;15.80;92.00;;;;;;5153942;27;20039;-51
2022/09/02 04:17:38;;;;;;;8.15;5.45;;;15.80;92.00;;;;;;5154312;27;20098;-48
2022/09/02 04:20:06;;;;;;;10.10;5.13;;;15.80;92.10;;;;;;5153705;27;20402;-52
2022/09/02 04:22:33;;;;;;;6.00;4.50;;;15.80;92.60;;;;;;5153488;27;20014;-50
2022/09/02 04:24:58;;;;;;;6.55;4.30;;;15.80;92.40;;;;;;5153559;27;20502;-49
2022/09/02 04:27:24;;;;;;;7.78;4.00;;;15.80;92.50;;;;;;5153965;27;20049;-50
2022/09/02 04:29:50;;;;;;;5.65;4.25;;;15.80;92.60;;;;;;5153683;27;20034;-51
2022/09/02 04:32:16;;;;;;;4.90;3.95;;;15.80;92.70;;;;;;5153180;27;20034;-51
2022/09/02 04:34:41;;;;;;;4.47;3.80;;;15.70;92.90;;;;;;5153383;27;20029;-50
2022/09/02 04:37:07;;;;;;;7.10;4.10;;;15.70;93.00;;;;;;5135053;27;20440;-53
2022/09/02 04:39:33;;;;;;;7.32;4.38;;;15.70;93.30;;;;;;5153472;27;20081;-51
2022/09/02 04:41:59;;;;;;;6.28;4.20;;;15.70;93.10;;;;;;5152937;27;20022;-50
2022/09/02 04:44:25;;;;;;;4.40;3.67;;;15.60;93.10;;;;;;5153829;27;20084;-50
2022/09/02 04:46:51;;;;;;;6.65;4.18;;;15.60;93.30;;;;;;5114162;27;20039;-52
2022/09/02 04:49:17;;;;;;;6.72;4.40;;;15.60;93.40;;;;;;5133687;27;20028;-51
2022/09/02 04:51:43;;;;;;;7.80;4.30;;;15.60;93.60;;;;;;5152566;27;20031;-52
2022/09/02 04:54:09;;;;;;;6.65;4.60;;;15.60;93.70;;;;;;5153025;27;20050;-49
2022/09/02 04:56:34;;;;;;;8.57;4.25;;;15.70;93.70;;;;;;5153525;27;20039;-48
2022/09/02 04:59:00;;;;;;;5.78;4.07;;;15.70;93.70;;;;;;5134868;27;20039;-49
2022/09/02 05:01:31;;;;;;;6.03;4.50;;;15.70;93.80;;;;;;5151720;27;20414;-50
2022/09/02 05:03:57;;;;;;;5.50;3.78;;;15.80;93.70;;;;;;5153689;27;20045;-51
2022/09/02 05:06:25;;;;;;;4.47;4.07;;;15.80;93.70;;;;;;5135008;27;20425;-49
2022/09/02 05:08:53;;;;;;;5.72;4.63;;;15.80;93.60;;;;;;5153163;27;20015;-52
2022/09/02 05:11:22;;;;;;;8.07;4.60;;;15.80;93.50;;;;;;5152068;27;20030;-49
2022/09/02 05:13:50;;;;;;;8.05;5.15;;;15.70;93.50;;;;;;5152922;27;20031;-49
2022/09/02 05:16:24;;;;;;;8.43;4.72;;;15.60;93.80;;;;;;5153300;27;20039;-48
2022/09/02 05:18:51;;;;;;;4.87;4.33;;;15.60;93.80;;;;;;5151533;27;20041;-48
2022/09/02 05:21:17;;;;;;;6.13;4.75;;;15.70;93.60;;;;;;5161217;27;20279;-49
2022/09/02 05:23:43;;;;;;;7.97;5.60;;;15.70;93.20;;;;;;5152897;27;20052;-48
2022/09/02 05:26:11;;;;;;;16.65;5.57;;;15.60;93.10;;;;;;5154113;27;20026;-50
2022/09/02 05:28:38;;;;;;;10.32;5.47;;;15.60;93.30;;;;;;5152589;27;20450;-50
2022/09/02 05:31:11;;;;;;;6.85;5.00;;;15.70;93.30;;;;;;5152722;27;20102;-54
2022/09/02 05:33:39;;;;;;;7.93;5.35;;;15.80;93.20;;;;;;5130068;27;20724;-52
2022/09/02 05:36:08;;;;;;;7.68;5.65;;;15.80;93.10;;;;;;5141701;27;20031;-50
2022/09/02 05:38:34;;;;;;;8.07;5.55;;;15.80;93.00;;;;;;5145301;27;20394;-48
2022/09/02 05:41:08;;;;;;;9.52;5.00;;;15.90;93.00;;;;;;5173612;27;20030;-52
2022/09/02 05:43:36;;;;;;;7.20;5.00;;;16.00;92.80;;;;;;5171418;27;20040;-48
2022/09/02 05:46:07;;;;;;;8.77;5.28;;;16.00;92.60;;;;;;5144727;27;20038;-54
2022/09/02 05:51:18;;;;;;;7.88;5.30;;;16.00;92.80;;;;;;5151288;27;20482;-52
2022/09/02 05:53:44;;;;;;;11.27;5.60;;;16.00;92.80;;;;;;5126118;27;20087;-50
2022/09/02 05:56:09;;;;;;;10.60;5.43;;;16.00;92.80;;;;;;5132394;27;20018;-54
2022/09/02 05:58:35;;;;;;;8.50;5.25;;;16.10;92.80;;;;;;5152083;27;20037;-49
2022/09/02 06:01:13;;;;;;;9.48;5.22;;;16.20;92.60;;;;;;5151290;27;20061;-53
2022/09/02 06:03:40;;;;;;;6.72;5.15;;;16.20;92.50;;;;;;5152566;27;20026;-49
2022/09/02 06:06:06;;;;;;;7.25;4.90;;;16.30;92.50;;;;;;5150955;27;20045;-49
2022/09/02 06:08:33;;;;;;;7.85;5.38;;;16.40;92.40;;;;;;5151414;27;20035;-50
2022/09/02 06:11:02;;;;;;;6.47;4.72;;;16.40;92.30;;;;;;5149206;27;20026;-50
2022/09/02 06:13:34;;;;;;;10.05;5.70;;;16.50;92.30;;;;;;5143062;27;20034;-53
2022/09/02 06:16:00;;;;;;;8.23;5.22;;;16.60;92.20;;;;;;5152428;27;20050;-50
2022/09/02 06:18:27;;;;;;;8.85;4.78;;;16.60;92.20;;;;;;5133497;27;20083;-50
2022/09/02 06:20:53;;;;;;;12.80;8.80;;;16.60;92.10;;;;;;5151850;27;20043;-51
2022/09/02 06:23:19;;;;;;;9.15;6.22;;;16.70;91.90;;;;;;5150885;27;20027;-48
2022/09/02 06:25:47;;;;;;;6.63;5.35;;;16.70;91.90;;;;;;5151767;27;20049;-53
2022/09/02 06:28:14;;;;;;;8.10;5.55;;;16.60;92.10;;;;;;5151353;27;20099;-52
2022/09/02 06:30:42;;;;;;;8.50;5.43;;;16.60;92.20;;;;;;5132137;27;20091;-51
2022/09/02 06:33:08;;;;;;;7.70;4.72;;;16.70;92.30;;;;;;5151070;27;20031;-50
2022/09/02 06:35:39;;;;;;;10.13;5.50;;;16.70;92.20;;;;;;5151088;27;20037;-47
2022/09/02 06:38:06;;;;;;;8.35;4.72;;;16.80;92.30;;;;;;5149939;27;20039;-51
2022/09/02 06:40:33;;;;;;;8.23;4.80;;;16.80;92.20;;;;;;5141757;27;20471;-47
2022/09/02 06:42:58;;;;;;;7.53;5.18;;;16.90;92.10;;;;;;5123897;27;20035;-55
2022/09/02 06:45:24;;;;;;;14.27;5.47;;;17.00;92.00;;;;;;5125989;27;20541;-54
2022/09/02 06:47:52;;;;;;;7.63;6.03;;;17.10;92.00;;;;;;5172983;27;20046;-49
2022/09/02 06:50:19;;;;;;;14.82;5.63;;;17.10;91.90;;;;;;5163174;27;20035;-51
2022/09/02 06:52:44;;;;;;;5.63;4.90;;;17.20;91.90;;;;;;5130885;27;20051;-52
2022/09/02 06:55:11;;;;;;;5.78;4.75;;;17.20;91.80;;;;;;5149999;27;20049;-51
2022/09/02 06:57:38;;;;;;;8.30;5.60;;;17.30;91.70;;;;;;5151383;27;20098;-52
2022/09/02 07:00:06;;;;;;;7.18;6.38;;;17.40;91.70;;;;;;5150798;27;20459;-52
2022/09/02 07:02:32;;;;;;;7.53;5.35;;;17.40;91.70;;;;;;5131167;27;20138;-53
2022/09/02 07:05:09;;;;;;;8.07;5.22;;;17.40;91.60;;;;;;5111868;28;20215;-52
2022/09/02 07:07:37;;;;;;;10.32;5.25;;;17.40;91.50;;;;;;5131244;28;20395;-53
2022/09/02 07:10:08;;;;;;;6.93;4.97;;;17.50;91.60;;;;;;5145164;27;20539;-51
2022/09/02 07:12:36;;;;;;;7.28;5.25;;;17.60;91.50;;;;;;5150844;27;20022;-52
2022/09/02 07:15:03;;;;;;;7.28;5.25;;;17.70;91.40;;;;;;5151946;27;20109;-50
2022/09/02 07:17:29;;;;;;;6.85;5.35;;;17.70;91.40;;;;;;5130965;28;20076;-49
2022/09/02 07:19:58;;;;;;;8.70;5.00;;;17.80;91.70;;;;;;5148538;27;20043;-52
2022/09/02 07:22:24;;;;;;;7.25;4.50;;;17.90;91.70;;;;;;5148807;27;20236;-48
2022/09/02 07:24:50;;;;;;;7.40;5.40;;;18.00;91.60;;;;;;5143371;27;20027;-48
2022/09/02 07:27:16;;;;;;;8.98;5.88;;;18.20;91.50;;;;;;5120521;27;20047;-49
2022/09/02 07:29:43;;;;;;;5.30;4.80;;;18.40;90.90;;;;;;5134531;27;20088;-46
2022/09/02 07:32:09;;;;;;;9.00;5.22;;;18.50;90.50;;;;;;5149337;27;20027;-46
2022/09/02 07:34:35;;;;;;;12.13;7.35;;;18.50;90.50;;;;;;5154835;27;20041;-45
2022/09/02 07:37:01;;;;;;;7.47;5.68;;;18.50;90.30;;;;;;5155051;27;20034;-48
2022/09/02 07:39:26;;;;;;;7.72;5.15;;;18.60;90.10;;;;;;5138281;27;20844;-46
2022/09/02 07:41:52;;;;;;;7.55;5.00;;;18.60;90.00;;;;;;5143506;27;20035;-49
2022/09/02 07:44:20;;;;;;;9.60;5.03;;;18.60;90.10;;;;;;5154539;27;20030;-49
2022/09/02 07:46:46;;;;;;;5.47;4.75;;;18.60;90.00;;;;;;5146110;27;20027;-52
2022/09/02 07:49:13;;;;;;;6.75;4.80;;;18.70;90.00;;;;;;5157362;27;20413;-47
2022/09/02 07:51:41;;;;;;;6.75;4.47;;;18.70;90.00;;;;;;5142405;27;20035;-50
2022/09/02 07:54:09;;;;;;;11.13;4.55;;;18.80;89.50;;;;;;5136010;27;20019;-49
2022/09/02 07:56:36;;;;;;;7.78;4.38;;;18.80;89.60;;;;;;5136227;27;20015;-46
2022/09/02 07:59:02;;;;;;;6.35;4.40;;;19.00;88.90;;;;;;5155199;27;20031;-49
2022/09/02 08:01:28;;;;;;;8.25;4.25;;;19.10;89.00;;;;;;5153502;27;20110;-51
2022/09/02 08:03:54;;;;;;;11.73;3.97;;;19.20;88.40;;;;;;5135968;27;20034;-53
2022/09/02 08:06:25;;;;;;;9.10;4.72;;;19.20;88.30;;;;;;5135523;27;20403;-48
2022/09/02 08:08:52;;;;;;;6.45;4.05;;;19.30;88.00;;;;;;5136544;27;20031;-48
2022/09/02 08:11:18;;;;;;;8.13;3.90;;;19.40;87.30;;;;;;5152901;27;20029;-49
2022/09/02 08:13:44;;;;;;;6.32;4.30;;;19.40;86.90;;;;;;5154376;27;20031;-48
2022/09/02 08:16:10;;;;;;;5.93;4.15;;;19.50;86.70;;;;;;5135333;27;20026;-48
2022/09/02 08:18:37;;;;;;;8.20;3.90;;;19.60;86.40;;;;;;5153869;27;20019;-49
2022/09/02 08:21:03;;;;;;;12.20;4.10;;;19.70;86.10;;;;;;5153589;27;20019;-49
2022/09/02 08:23:29;;;;;;;6.88;4.18;;;19.80;85.50;;;;;;5153261;27;20054;-49
2022/09/02 08:25:57;;;;;;;6.18;3.80;;;19.80;85.30;;;;;;5118424;27;20409;-50
2022/09/02 08:28:22;;;;;;;10.02;3.95;;;19.90;85.00;;;;;;5142103;27;20050;-49
2022/09/02 08:30:49;;;;;;;6.25;3.28;;;20.00;84.00;;;;;;5152443;27;20360;-52
2022/09/02 08:33:14;;;;;;;10.82;3.58;;;20.10;84.00;;;;;;5134996;27;20043;-48
2022/09/02 08:35:40;;;;;;;10.15;4.30;;;20.20;83.50;;;;;;5135122;27;20379;-51
2022/09/02 08:38:06;;;;;;;9.32;3.53;;;20.20;82.20;;;;;;5160486;27;20062;-55
2022/09/02 08:40:40;;;;;;;8.07;2.97;;;20.20;82.00;;;;;;5156644;27;20069;-53
2022/09/02 08:43:16;;;;;;;;;;;20.30;81.10;;;;;;5128936;27;20367;-52
2022/09/02 08:45:43;;;;;;;3.75;2.70;;;20.30;80.20;;;;;;5151662;27;19902;-51
2022/09/02 08:48:21;;;;;;;3.55;2.60;;;20.40;79.60;;;;;;5151214;27;20058;-54
2022/09/02 08:50:51;;;;;;;4.95;2.75;;;20.50;78.50;;;;;;5148011;27;20034;-52
2022/09/02 08:53:33;;;;;;;5.72;2.65;;;20.60;77.90;;;;;;5149177;27;20030;-50
2022/09/02 08:56:01;;;;;;;8.68;2.72;;;20.70;77.40;;;;;;5150102;27;20031;-55
2022/09/02 08:58:32;;;;;;;7.30;3.17;;;20.80;77.30;;;;;;5148237;27;20034;-53
2022/09/02 09:01:14;;;;;;;6.03;2.90;;;20.80;76.10;;;;;;5146784;27;20031;-50
2022/09/02 09:03:58;;;;;;;3.47;2.70;;;20.70;76.40;;;;;;5130847;27;20035;-53
2022/09/02 09:06:57;;;;;;;6.53;3.10;;;20.90;76.00;;;;;;5150902;27;20041;-54
2022/09/02 09:10:10;;;;;;;10.32;3.00;;;20.90;74.80;;;;;;5152024;27;20034;-55
2022/09/02 09:12:39;;;;;;;4.32;2.70;;;21.00;74.30;;;;;;5088611;28;20024;-54
2022/09/02 09:15:46;;;;;;;6.47;2.88;;;21.10;74.20;;;;;;5118841;27;20043;-57
2022/09/02 09:18:18;;;;;;;6.53;2.97;;;21.20;73.40;;;;;;5122319;27;20034;-55
2022/09/02 09:20:45;;;;;;;3.65;2.40;;;21.30;74.10;;;;;;5152938;27;20525;-52
2022/09/02 09:23:33;;;;;;;5.55;3.00;;;21.40;74.10;;;;;;5151655;27;20095;-52
2022/09/02 09:26:10;;;;;;;3.80;2.75;;;21.50;73.00;;;;;;5141496;27;20087;-49
2022/09/02 09:28:47;;;;;;;4.00;2.33;;;21.50;72.60;;;;;;5159119;27;20101;-54
2022/09/02 09:31:20;;;;;;;3.90;2.25;;;21.50;71.20;;;;;;5152235;27;20043;-51
2022/09/02 09:34:05;;;;;;;5.88;2.78;;;21.50;71.70;;;;;;5152798;27;20019;-49
2022/09/02 09:36:40;;;;;;;10.82;3.20;;;21.50;70.80;;;;;;5152534;27;20034;-55
2022/09/02 09:39:30;;;;;;;6.35;3.60;;;21.50;71.50;;;;;;5152376;27;20037;-56
2022/09/02 09:42:02;;;;;;;4.63;2.55;;;21.70;71.30;;;;;;5131494;27;20035;-50
2022/09/02 09:44:45;;;;;;;4.35;2.33;;;21.80;71.30;;;;;;5134971;27;20084;-56
2022/09/02 09:47:21;;;;;;;6.70;2.60;;;22.00;71.20;;;;;;5135005;27;20034;-57
2022/09/02 09:49:49;;;;;;;8.02;2.85;;;22.10;70.70;;;;;;5138764;27;20686;-56
2022/09/02 09:52:23;;;;;;;5.57;2.78;;;22.20;69.30;;;;;;5152992;27;20015;-52
2022/09/02 09:55:10;;;;;;;6.43;3.70;;;22.30;68.80;;;;;;5131670;27;20122;-54
2022/09/02 09:57:37;;;;;;;8.43;3.35;;;22.50;68.60;;;;;;5140787;27;20023;-51
2022/09/02 10:00:12;;;;;;;7.45;3.05;;;22.50;68.80;;;;;;5151037;27;20060;-53
2022/09/02 10:02:46;;;;;;;10.95;4.05;;;22.40;67.50;;;;;;5149509;27;20035;-53
2022/09/02 10:05:24;;;;;;;6.18;3.00;;;22.40;67.50;;;;;;5152344;27;20043;-57
2022/09/02 10:08:19;;;;;;;9.98;2.75;;;22.50;67.30;;;;;;5144819;27;20171;-53
2022/09/02 10:11:19;;;;;;;5.22;3.22;;;22.50;66.50;;;;;;5144648;27;20035;-55
2022/09/02 10:13:45;;;;;;;3.75;2.90;;;22.60;67.20;;;;;;5145805;27;20027;-49
2022/09/02 10:16:35;;;;;;;4.07;2.50;;;22.70;67.10;;;;;;5131493;27;20538;-53
2022/09/02 10:19:20;;;;;;;6.78;2.80;;;22.60;66.20;;;;;;5148574;27;20035;-52
2022/09/02 10:22:13;;;;;;;5.85;2.80;;;22.60;66.90;;;;;;5144684;27;20038;-52
2022/09/02 10:25:06;;;;;;;5.43;2.40;;;22.60;66.50;;;;;;5148117;27;20065;-54
2022/09/02 10:28:03;;;;;;;3.70;2.22;;;22.60;67.30;;;;;;5148983;27;20026;-55
2022/09/02 10:30:35;;;;;;;6.43;2.60;;;22.70;66.90;;;;;;5147612;27;20042;-52
2022/09/02 10:33:04;;;;;;;7.20;2.70;;;23.00;65.60;;;;;;5150264;27;20026;-48
2022/09/02 10:35:48;;;;;;;7.22;2.70;;;23.10;64.80;;;;;;5150401;27;20072;-50
2022/09/02 10:38:43;;;;;;;6.60;2.90;;;23.10;64.60;;;;;;5148948;27;20101;-50
2022/09/02 10:41:17;;;;;;;;;;;22.90;65.80;;;;;;5144409;27;20605;-52
2022/09/02 10:44:20;;;;;;;3.22;2.25;;;22.70;66.00;;;;;;5149952;27;19923;-48
2022/09/02 10:47:03;;;;;;;4.55;2.40;;;22.90;66.00;;;;;;5147264;27;20051;-45
2022/09/02 10:49:43;;;;;;;6.15;2.58;;;23.10;66.00;;;;;;5145694;27;20494;-47
2022/09/02 10:52:19;;;;;;;3.92;2.63;;;23.30;65.10;;;;;;5140529;27;20114;-46
2022/09/02 10:54:51;;;;;;;6.75;2.50;;;23.50;64.50;;;;;;5150007;27;20042;-47
2022/09/02 10:57:28;;;;;;;3.50;2.38;;;23.50;64.50;;;;;;5149467;27;20050;-52
2022/09/02 11:00:11;;;;;;;5.88;2.20;;;23.50;63.90;;;;;;5158509;27;20022;-49
2022/09/02 11:02:46;;;;;;;3.78;3.00;;;23.30;63.50;;;;;;5155115;27;20037;-51
2022/09/02 11:05:17;;;;;;;4.85;3.22;;;23.20;63.40;;;;;;5136038;27;20069;-49
2022/09/02 11:08:06;;;;;;;4.78;2.65;;;23.30;63.70;;;;;;5155449;27;20058;-49
2022/09/02 11:10:44;;;;;;;4.90;2.08;;;23.10;63.90;;;;;;5144369;27;20513;-48
2022/09/02 11:13:28;;;;;;;5.53;2.90;;;22.80;63.80;;;;;;5151508;27;20030;-50
2022/09/02 11:16:18;;;;;;;4.05;2.38;;;22.70;64.30;;;;;;5151410;27;20072;-51
2022/09/02 11:19:05;;;;;;;4.22;2.35;;;22.80;63.60;;;;;;5151165;27;20086;-53
2022/09/02 11:22:14;;;;;;;3.13;2.22;;;23.00;62.50;;;;;;5155255;27;20034;-51
2022/09/02 11:25:25;;;;;;;4.13;2.30;;;22.80;63.40;;;;;;5054151;28;20684;-55
2022/09/02 11:28:24;;;;;;;4.63;2.17;;;23.00;63.10;;;;;;5130900;27;20046;-53
2022/09/02 11:31:06;;;;;;;6.47;2.80;;;23.10;62.70;;;;;;5134400;27;20553;-54
2022/09/02 11:33:55;;;;;;;10.38;2.50;;;23.30;62.60;;;;;;5134673;27;20027;-49
2022/09/02 11:36:21;;;;;;;8.98;2.30;;;23.50;62.30;;;;;;5110664;27;20076;-51
2022/09/02 11:39:04;;;;;;;2.97;1.92;;;23.50;61.30;;;;;;5150199;27;20153;-56
2022/09/02 11:42:04;;;;;;;2.95;1.90;;;23.60;60.90;;;;;;5154634;27;20042;-54
2022/09/02 11:44:44;;;;;;;7.28;2.60;;;23.70;60.90;;;;;;5148211;27;20050;-52
2022/09/02 11:47:23;;;;;;;7.35;2.58;;;23.90;61.60;;;;;;5153714;27;20038;-51
2022/09/02 11:50:24;;;;;;;5.38;2.10;;;24.00;61.60;;;;;;5141324;27;20030;-54
2022/09/02 11:53:04;;;;;;;4.82;2.20;;;24.00;61.50;;;;;;5153892;27;20027;-55
2022/09/02 11:55:37;;;;;;;7.35;2.35;;;24.00;61.60;;;;;;5154807;27;20087;-51
2022/09/02 11:58:03;;;;;;;10.45;2.78;;;24.00;60.50;;;;;;5154275;27;20039;-50
2022/09/02 12:01:01;;;;;;;3.75;2.10;;;23.80;60.20;;;;;;5154347;27;20035;-52
2022/09/02 12:03:30;;;;;;;3.55;1.80;;;23.80;60.20;;;;;;5105414;27;20043;-53
2022/09/02 12:06:14;;;;;;;2.65;2.00;;;23.80;60.30;;;;;;5146248;27;20454;-53
2022/09/02 12:08:40;;;;;;;12.73;6.60;;;23.90;59.80;;;;;;5160177;27;20038;-51
2022/09/02 12:11:06;;;;;;;2.45;2.17;;;24.00;59.80;;;;;;5153415;27;20043;-54
2022/09/02 12:13:42;;;;;;;3.55;2.20;;;23.80;59.80;;;;;;5153903;27;20029;-54
2022/09/02 12:16:20;;;;;;;4.38;1.98;;;23.70;60.10;;;;;;5154806;27;20031;-52
2022/09/02 12:18:54;;;;;;;2.53;1.95;;;23.90;59.90;;;;;;5147098;27;20027;-53
2022/09/02 12:21:24;;;;;;;4.93;2.38;;;24.00;58.90;;;;;;5147777;27;20115;-49
2022/09/02 12:23:51;;;;;;;3.65;2.15;;;24.20;59.40;;;;;;5149633;27;20135;-52
2022/09/02 12:26:18;;;;;;;4.00;2.80;;;24.10;59.50;;;;;;5135507;27;20095;-51
2022/09/02 12:28:48;;;;;;;4.65;2.75;;;24.10;59.90;;;;;;5151329;27;20034;-53
2022/09/02 12:31:40;;;;;;;3.60;1.80;;;24.20;60.00;;;;;;5139441;27;20505;-54
2022/09/02 12:34:24;;;;;;;3.20;2.00;;;24.20;59.80;;;;;;5133227;27;20038;-55
2022/09/02 12:36:51;;;;;;;3.85;1.98;;;24.30;60.00;;;;;;5151114;27;20474;-48
2022/09/02 12:39:24;;;;;;;7.05;2.80;;;24.40;59.60;;;;;;5151754;27;20379;-53
2022/09/02 12:42:09;;;;;;;4.85;2.35;;;24.70;59.50;;;;;;5152549;27;20078;-53
2022/09/02 12:45:02;;;;;;;5.70;2.75;;;24.90;59.30;;;;;;5151904;27;20553;-52
2022/09/02 12:47:31;;;;;;;6.30;2.20;;;25.20;59.30;;;;;;5149539;27;20042;-55
2022/09/02 12:50:08;;;;;;;4.70;1.70;;;25.30;57.70;;;;;;5152427;27;20534;-50
2022/09/02 12:52:33;;;;;;;3.63;2.03;;;25.40;57.50;;;;;;5152423;27;20079;-51
2022/09/02 12:55:09;;;;;;;5.22;2.13;;;25.40;57.40;;;;;;5152506;27;20031;-52
2022/09/02 12:57:41;;;;;;;4.18;2.15;;;25.70;57.30;;;;;;5152666;27;20054;-55
2022/09/02 13:00:11;;;;;;;4.78;1.75;;;25.80;56.80;;;;;;5134229;27;20635;-54
2022/09/02 13:03:00;;;;;;;4.10;1.88;;;26.00;56.70;;;;;;5135085;27;20547;-52
2022/09/02 13:05:49;;;;;;;4.50;2.25;;;26.00;56.40;;;;;;5149519;27;20087;-50
2022/09/02 13:08:43;;;;;;;6.53;1.90;;;25.90;56.20;;;;;;5135021;27;20050;-50
2022/09/02 13:11:17;;;;;;;4.75;2.00;;;25.70;55.60;;;;;;5149634;27;20494;-53